N172P EGNV-EGNV
Flight info
| Callsign | N172P |
|---|---|
| Flight time | 0h 2m |
| Altitude | 1500 |
| Route | CIRCUITS |
| Aircraft | C172/L-DOV/C |
Departure
| Time | 2026-05-06 15:48 |
|---|---|
| Airport | Teesside International Airport (EGNV) |
Arrival
| Time | 2026-05-06 15:50 |
|---|---|
| Airport | Teesside International Airport (EGNV) |
| Time | Latitude | Longitude | Altitude | Speed | Heading |
|---|---|---|---|---|---|
| 2026-05-06 15:39 | 54.51413 | -1.42538 | 119 ft | 0 kts | 284° |
| 2026-05-06 15:42 | 54.51416 | -1.42559 | 119 ft | 6 kts | 282° |
| 2026-05-06 15:42 | 54.51374 | -1.42590 | 120 ft | 11 kts | 201° |
| 2026-05-06 15:42 | 54.51286 | -1.42694 | 120 ft | 18 kts | 227° |
| 2026-05-06 15:42 | 54.51232 | -1.42856 | 122 ft | 10 kts | 241° |
| 2026-05-06 15:43 | 54.51202 | -1.42943 | 122 ft | 19 kts | 238° |
| 2026-05-06 15:43 | 54.51083 | -1.43178 | 121 ft | 22 kts | 221° |
| 2026-05-06 15:43 | 54.50987 | -1.43422 | 121 ft | 32 kts | 235° |
| 2026-05-06 15:43 | 54.50826 | -1.43730 | 124 ft | 31 kts | 209° |
| 2026-05-06 15:44 | 54.50669 | -1.43841 | 124 ft | 19 kts | 236° |
| 2026-05-06 15:44 | 54.50584 | -1.44000 | 123 ft | 19 kts | 223° |
| 2026-05-06 15:44 | 54.50481 | -1.44193 | 120 ft | 24 kts | 229° |
| 2026-05-06 15:44 | 54.50358 | -1.44369 | 114 ft | 19 kts | 187° |
| 2026-05-06 15:45 | 54.50297 | -1.44343 | 113 ft | 0 kts | 138° |
| 2026-05-06 15:45 | 54.50297 | -1.44344 | 113 ft | 0 kts | 129° |
| 2026-05-06 15:46 | 54.50264 | -1.44290 | 114 ft | 15 kts | 123° |
| 2026-05-06 15:47 | 54.50284 | -1.44120 | 118 ft | 11 kts | 45° |
| 2026-05-06 15:47 | 54.50392 | -1.43916 | 121 ft | 46 kts | 46° |
| 2026-05-06 15:47 | 54.50661 | -1.43392 | 236 ft | 57 kts | 50° |
| 2026-05-06 15:47 | 54.50893 | -1.42850 | 441 ft | 56 kts | 46° |
| 2026-05-06 15:48 | 54.51136 | -1.42246 | 487 ft | 78 kts | 65° |
| 2026-05-06 15:48 | 54.51082 | -1.41559 | 635 ft | 88 kts | 139° |
| 2026-05-06 15:48 | 54.50496 | -1.41074 | 776 ft | 93 kts | 150° |
| 2026-05-06 15:48 | 54.49900 | -1.40975 | 954 ft | 99 kts | 210° |
| 2026-05-06 15:49 | 54.49546 | -1.41984 | 1111 ft | 100 kts | 246° |
| 2026-05-06 15:49 | 54.49236 | -1.43195 | 979 ft | 107 kts | 245° |
| 2026-05-06 15:49 | 54.48923 | -1.44385 | 780 ft | 95 kts | 245° |
| 2026-05-06 15:49 | 54.48925 | -1.45265 | 661 ft | 70 kts | 322° |
| 2026-05-06 15:50 | 54.49313 | -1.45547 | 465 ft | 61 kts | 8° |
| 2026-05-06 15:50 | 54.49671 | -1.45267 | 319 ft | 55 kts | 44° |
| 2026-05-06 15:50 | 54.49902 | -1.44814 | 227 ft | 49 kts | 44° |
| 2026-05-06 15:50 | 54.50140 | -1.44389 | 169 ft | 49 kts | 43° |
| 2026-05-06 15:51 | 54.50381 | -1.43956 | 122 ft | 49 kts | 46° |
| 2026-05-06 15:51 | 54.50638 | -1.43465 | 176 ft | 60 kts | 43° |
| 2026-05-06 15:51 | 54.50909 | -1.43002 | 379 ft | 55 kts | 37° |
| 2026-05-06 15:51 | 54.51206 | -1.42613 | 532 ft | 57 kts | 43° |
| 2026-05-06 15:52 | 54.51483 | -1.42237 | 739 ft | 49 kts | 23° |
| 2026-05-06 15:52 | 54.51355 | -1.41733 | 710 ft | 89 kts | 163° |
| 2026-05-06 15:52 | 54.50697 | -1.41785 | 865 ft | 90 kts | 161° |
| 2026-05-06 15:52 | 54.50146 | -1.41496 | 1142 ft | 77 kts | 145° |
| 2026-05-06 15:53 | 54.49623 | -1.41098 | 1227 ft | 93 kts | 163° |
| 2026-05-06 15:53 | 54.49033 | -1.41615 | 1292 ft | 108 kts | 238° |
| 2026-05-06 15:53 | 54.48581 | -1.42731 | 1303 ft | 117 kts | 233° |
| 2026-05-06 15:53 | 54.48402 | -1.44039 | 1166 ft | 118 kts | 290° |
| 2026-05-06 15:54 | 54.48978 | -1.44612 | 847 ft | 97 kts | 4° |
| 2026-05-06 15:54 | 54.49578 | -1.44924 | 593 ft | 73 kts | 360° |
| 2026-05-06 15:54 | 54.50011 | -1.44635 | 304 ft | 66 kts | 46° |
| 2026-05-06 15:54 | 54.50285 | -1.44121 | 140 ft | 52 kts | 47° |
| 2026-05-06 15:55 | 54.50527 | -1.43742 | 201 ft | 48 kts | 30° |
| 2026-05-06 15:55 | 54.50858 | -1.43427 | 290 ft | 58 kts | 62° |
| 2026-05-06 15:55 | 54.51011 | -1.42691 | 355 ft | 77 kts | 43° |
| 2026-05-06 15:55 | 54.51421 | -1.42059 | 553 ft | 76 kts | 44° |
| 2026-05-06 15:56 | 54.51585 | -1.41445 | 823 ft | 68 kts | 105° |
| 2026-05-06 15:56 | 54.51291 | -1.40635 | 982 ft | 72 kts | 124° |
| 2026-05-06 15:56 | 54.50903 | -1.40030 | 1149 ft | 81 kts | 144° |
| 2026-05-06 15:56 | 54.50343 | -1.40184 | 1307 ft | 92 kts | 215° |
| 2026-05-06 15:57 | 54.49968 | -1.41179 | 1255 ft | 100 kts | 245° |
| 2026-05-06 15:57 | 54.49636 | -1.42174 | 1186 ft | 94 kts | 237° |
| 2026-05-06 15:57 | 54.49283 | -1.43147 | 1049 ft | 96 kts | 233° |
| 2026-05-06 15:57 | 54.48931 | -1.44110 | 840 ft | 91 kts | 255° |
| 2026-05-06 15:58 | 54.49161 | -1.44982 | 608 ft | 82 kts | 341° |
| 2026-05-06 15:58 | 54.49701 | -1.44964 | 370 ft | 78 kts | 24° |
| 2026-05-06 15:58 | 54.50113 | -1.44437 | 181 ft | 71 kts | 45° |
| 2026-05-06 15:58 | 54.50411 | -1.43870 | 121 ft | 53 kts | 50° |
| 2026-05-06 15:59 | 54.50645 | -1.43455 | 121 ft | 56 kts | 41° |
| 2026-05-06 15:59 | 54.50951 | -1.42864 | 297 ft | 64 kts | 44° |
| 2026-05-06 15:59 | 54.51277 | -1.42297 | 462 ft | 72 kts | 32° |
| 2026-05-06 15:59 | 54.51656 | -1.41795 | 667 ft | 72 kts | 62° |
| 2026-05-06 16:00 | 54.51498 | -1.40993 | 796 ft | 88 kts | 150° |
| 2026-05-06 16:00 | 54.50922 | -1.41388 | 976 ft | 92 kts | 222° |
| 2026-05-06 16:00 | 54.50478 | -1.42298 | 1075 ft | 100 kts | 225° |
| 2026-05-06 16:00 | 54.49996 | -1.43097 | 1196 ft | 107 kts | 219° |
| 2026-05-06 16:01 | 54.49407 | -1.44018 | 1121 ft | 125 kts | 220° |
| 2026-05-06 16:01 | 54.48927 | -1.44960 | 1271 ft | 102 kts | 275° |
| 2026-05-06 16:01 | 54.49444 | -1.45570 | 913 ft | 87 kts | 18° |
| 2026-05-06 16:01 | 54.49861 | -1.44979 | 551 ft | 77 kts | 56° |
| 2026-05-06 16:02 | 54.50200 | -1.44260 | 175 ft | 68 kts | 46° |
| 2026-05-06 16:02 | 54.50464 | -1.43798 | 121 ft | 41 kts | 49° |
| 2026-05-06 16:02 | 54.50598 | -1.43711 | 122 ft | 18 kts | 336° |
| 2026-05-06 16:02 | 54.50705 | -1.43771 | 123 ft | 28 kts | 352° |
| 2026-05-06 16:03 | 54.50859 | -1.43694 | 124 ft | 14 kts | 29° |
| 2026-05-06 16:03 | 54.50947 | -1.43533 | 123 ft | 30 kts | 59° |
| 2026-05-06 16:03 | 54.51054 | -1.43231 | 122 ft | 23 kts | 48° |
| 2026-05-06 16:03 | 54.51159 | -1.43075 | 121 ft | 25 kts | 76° |
| 2026-05-06 16:04 | 54.51228 | -1.42863 | 122 ft | 15 kts | 51° |
| 2026-05-06 16:04 | 54.51284 | -1.42692 | 120 ft | 17 kts | 50° |
| 2026-05-06 16:04 | 54.51355 | -1.42607 | 120 ft | 9 kts | 25° |
| 2026-05-06 16:04 | 54.51374 | -1.42546 | 119 ft | 4 kts | 120° |
| 2026-05-06 16:05 | 54.51385 | -1.42491 | 118 ft | 9 kts | 347° |
| 2026-05-06 16:05 | 54.51393 | -1.42527 | 118 ft | 2 kts | 273° |
| 2026-05-06 16:05 | 54.51395 | -1.42545 | 119 ft | 0 kts | 284° |